createdAt,value
2019-03-26T00:00:25.896Z,9.60
2019-03-26T00:01:26.506Z,5.80
2019-03-26T00:02:26.830Z,7.00
2019-03-26T00:03:27.237Z,6.60
2019-03-26T00:04:27.551Z,6.70
2019-03-26T00:05:27.664Z,5.70
2019-03-26T00:06:28.086Z,5.00
2019-03-26T00:07:28.300Z,7.10
2019-03-26T00:08:28.909Z,6.50
2019-03-26T00:09:28.915Z,6.60
2019-03-26T00:10:29.433Z,7.60
2019-03-26T00:11:29.544Z,8.10
2019-03-26T00:13:29.665Z,5.50
2019-03-26T00:14:29.765Z,8.60
2019-03-26T00:15:29.538Z,4.70
2019-03-26T00:16:30.089Z,8.70
2019-03-26T00:17:30.210Z,9.10
2019-03-26T00:18:30.201Z,4.90
2019-03-26T00:19:30.722Z,8.70
2019-03-26T00:20:30.730Z,7.60
2019-03-26T00:21:30.427Z,6.00
2019-03-26T00:22:31.056Z,4.40
2019-03-26T00:23:31.160Z,8.60
2019-03-26T00:24:31.063Z,6.70
2019-03-26T00:25:31.481Z,5.80
2019-03-26T00:26:31.791Z,8.30
2019-03-26T00:27:32.023Z,7.10
2019-03-26T00:28:32.521Z,7.20
2019-03-26T00:29:33.041Z,7.70
2019-03-26T00:30:33.018Z,5.60
2019-03-26T00:31:33.361Z,6.60
2019-03-26T00:32:33.890Z,7.80
2019-03-26T00:33:36.608Z,5.90
2019-03-26T00:34:33.702Z,7.00
2019-03-26T00:35:34.013Z,6.40
2019-03-26T00:36:34.416Z,6.40
2019-03-26T00:37:34.739Z,6.80
2019-03-26T00:38:35.287Z,5.40
2019-03-26T00:39:35.038Z,4.80
2019-03-26T00:40:35.260Z,8.50
2019-03-26T00:41:35.473Z,3.10
2019-03-26T00:42:36.100Z,10.70
2019-03-26T00:43:35.895Z,6.00
2019-03-26T00:44:36.108Z,7.10
2019-03-26T00:45:36.627Z,7.40
2019-03-26T00:46:36.742Z,6.60
2019-03-26T00:47:36.543Z,5.90
2019-03-26T00:48:36.753Z,6.40
2019-03-26T00:50:37.072Z,5.50
2019-03-26T00:51:37.401Z,7.80
2019-03-26T00:52:38.011Z,5.20
2019-03-26T00:53:38.223Z,6.20
2019-03-26T00:54:38.016Z,7.40
2019-03-26T00:55:38.535Z,8.30
2019-03-26T00:56:38.225Z,5.80
2019-03-26T00:57:38.550Z,5.50
2019-03-26T00:58:39.071Z,5.40
2019-03-26T00:59:39.174Z,4.60
2019-03-26T01:00:38.876Z,5.20
2019-03-26T01:01:38.882Z,11.30
2019-03-26T01:02:39.213Z,4.10
2019-03-26T01:03:40.344Z,6.80
2019-03-26T01:04:40.334Z,6.60
2019-03-26T01:05:40.338Z,7.60
2019-03-26T01:06:40.855Z,6.70
2019-03-26T01:07:40.870Z,6.10
2019-03-26T01:08:40.045Z,6.50
2019-03-26T01:09:40.880Z,7.00
2019-03-26T01:10:41.499Z,7.80
2019-03-26T01:11:41.461Z,5.40
2019-03-26T01:12:42.036Z,6.80
2019-03-26T01:13:41.830Z,8.50
2019-03-26T01:14:42.344Z,5.80
2019-03-26T01:15:42.453Z,4.90
2019-03-26T01:16:42.464Z,6.10
2019-03-26T01:17:42.885Z,7.20
2019-03-26T01:18:43.293Z,7.00
2019-03-26T01:19:43.711Z,6.80
2019-03-26T01:20:44.127Z,8.80
2019-03-26T01:21:44.749Z,7.60
2019-03-26T01:22:44.657Z,5.80
2019-03-26T01:23:45.199Z,6.80
2019-03-26T01:24:45.177Z,5.20
2019-03-26T01:25:45.695Z,7.80
2019-03-26T01:26:45.592Z,6.10
2019-03-26T01:27:46.116Z,7.30
2019-03-26T01:28:46.223Z,10.10
2019-03-26T01:29:46.137Z,6.70
2019-03-26T01:30:46.644Z,5.70
2019-03-26T01:31:46.765Z,5.10
2019-03-26T01:32:46.820Z,5.50
2019-03-26T01:33:46.882Z,9.80
2019-03-26T01:34:46.898Z,5.70
2019-03-26T01:36:47.001Z,5.70
2019-03-26T01:37:47.007Z,9.60
2019-03-26T01:38:47.415Z,7.90
2019-03-26T01:39:47.941Z,8.20
2019-03-26T01:40:48.048Z,6.70
2019-03-26T01:41:48.156Z,8.10
2019-03-26T01:42:48.167Z,9.00
2019-03-26T01:43:48.272Z,6.40
2019-03-26T01:44:48.180Z,7.00
2019-03-26T01:45:48.550Z,7.60
2019-03-26T01:46:49.004Z,10.10
2019-03-26T01:47:48.815Z,6.30
2019-03-26T01:48:49.322Z,4.90
2019-03-26T01:50:49.441Z,6.00
2019-03-26T01:51:49.447Z,7.50
2019-03-26T01:52:49.562Z,7.60
2019-03-26T01:53:49.560Z,8.50
2019-03-26T01:54:49.877Z,7.90
2019-03-26T01:55:50.188Z,8.40
2019-03-26T01:56:50.318Z,9.30
2019-03-26T01:57:50.823Z,7.20
2019-03-26T01:58:50.721Z,7.30
2019-03-26T01:59:51.035Z,5.50
2019-03-26T02:00:51.453Z,5.90
2019-03-26T02:01:51.770Z,9.90
2019-03-26T02:02:52.300Z,6.50
2019-03-26T02:03:52.292Z,10.40
2019-03-26T02:05:00.015Z,8.60
2019-03-26T02:05:52.921Z,8.70
2019-03-26T02:06:53.500Z,10.50
2019-03-26T02:07:53.455Z,10.50
2019-03-26T02:08:53.966Z,10.00
2019-03-26T02:09:53.970Z,14.50
2019-03-26T02:10:54.490Z,8.60
2019-03-26T02:11:54.290Z,8.40
2019-03-26T02:12:54.609Z,11.30
2019-03-26T02:13:54.926Z,12.00
2019-03-26T02:14:55.544Z,7.10
2019-03-26T02:15:55.444Z,9.20
2019-03-26T02:16:55.957Z,11.50
2019-03-26T02:17:55.979Z,7.70
2019-03-26T02:18:56.174Z,10.00
2019-03-26T02:19:56.080Z,9.30
2019-03-26T02:20:56.396Z,10.80
2019-03-26T02:21:56.706Z,9.80
2019-03-26T02:22:57.441Z,10.60
2019-03-26T02:23:57.550Z,10.60
2019-03-26T02:24:57.546Z,12.30
2019-03-26T02:25:57.967Z,10.90
2019-03-26T02:27:58.601Z,10.20
2019-03-26T02:28:58.701Z,10.30
2019-03-26T02:29:58.709Z,11.20
2019-03-26T02:30:58.822Z,11.20
2019-03-26T02:31:58.927Z,14.20
2019-03-26T02:32:58.447Z,9.20
2019-03-26T02:33:58.939Z,14.00
2019-03-26T02:35:16.207Z,15.40
2019-03-26T02:35:59.667Z,11.80
2019-03-26T02:37:00.187Z,11.60
2019-03-26T02:38:00.814Z,12.70
2019-03-26T02:39:00.827Z,9.20
2019-03-26T02:40:00.963Z,14.80
2019-03-26T02:41:01.342Z,13.40
2019-03-26T02:42:01.447Z,14.10
2019-03-26T02:43:01.358Z,15.80
2019-03-26T02:44:01.919Z,13.70
2019-03-26T02:45:01.982Z,11.30
2019-03-26T02:46:02.497Z,11.00
2019-03-26T02:47:02.608Z,12.40
2019-03-26T02:48:02.733Z,11.20
2019-03-26T02:49:02.824Z,11.30
2019-03-26T02:50:02.809Z,13.60
2019-03-26T02:51:03.054Z,10.90
2019-03-26T02:52:03.153Z,12.10
2019-03-26T02:53:03.064Z,11.50
2019-03-26T02:54:03.381Z,10.80
2019-03-26T02:55:03.740Z,17.70
2019-03-26T02:56:04.295Z,10.70
2019-03-26T02:57:04.719Z,11.10
2019-03-26T02:58:05.042Z,13.50
2019-03-26T02:59:05.418Z,13.30
2019-03-26T03:00:05.662Z,13.20
2019-03-26T03:01:06.181Z,12.80
2019-03-26T03:02:06.393Z,15.40
2019-03-26T03:03:06.712Z,12.60
2019-03-26T03:04:07.121Z,17.20
2019-03-26T03:05:07.445Z,15.10
2019-03-26T03:06:07.953Z,18.00
2019-03-26T03:08:08.385Z,10.00
2019-03-26T03:09:08.488Z,14.40
2019-03-26T03:10:08.193Z,11.30
2019-03-26T03:11:08.497Z,12.50
2019-03-26T03:12:08.912Z,11.70
2019-03-26T03:13:09.249Z,10.10
2019-03-26T03:14:09.847Z,13.80
2019-03-26T03:15:09.754Z,11.10
2019-03-26T03:16:10.277Z,11.40
2019-03-26T03:17:09.969Z,8.70
2019-03-26T03:18:10.195Z,11.80
2019-03-26T03:19:10.668Z,11.90
2019-03-26T03:20:11.117Z,11.20
2019-03-26T03:21:11.473Z,13.60
2019-03-26T03:22:11.949Z,14.00
2019-03-26T03:23:12.478Z,12.90
2019-03-26T03:24:12.475Z,13.00
2019-03-26T03:25:12.996Z,11.30
2019-03-26T03:26:12.898Z,13.20
2019-03-26T03:27:13.419Z,14.70
2019-03-26T03:28:13.736Z,13.90
2019-03-26T03:29:13.944Z,13.60
2019-03-26T03:30:13.966Z,13.00
2019-03-26T03:31:14.066Z,12.40
2019-03-26T03:32:14.076Z,13.00
2019-03-26T03:33:14.242Z,15.90
2019-03-26T03:34:14.404Z,19.50
2019-03-26T03:35:15.015Z,11.80
2019-03-26T03:36:15.008Z,20.60
2019-03-26T03:37:15.221Z,15.40
2019-03-26T03:38:15.645Z,15.30
2019-03-26T03:39:16.166Z,10.90
2019-03-26T03:40:16.164Z,15.10
2019-03-26T03:41:16.783Z,14.60
2019-03-26T03:42:16.790Z,15.00
2019-03-26T03:43:16.905Z,12.80
2019-03-26T03:44:17.006Z,12.50
2019-03-26T03:45:17.119Z,12.60
2019-03-26T03:46:17.428Z,18.70
2019-03-26T03:47:17.234Z,17.10
2019-03-26T03:48:17.760Z,20.20
2019-03-26T03:49:17.861Z,13.90
2019-03-26T03:50:17.973Z,17.50
2019-03-26T03:51:17.779Z,15.00
2019-03-26T03:52:18.185Z,17.40
2019-03-26T03:53:18.813Z,15.80
2019-03-26T03:54:18.614Z,19.00
2019-03-26T03:55:19.023Z,17.20
2019-03-26T03:56:18.935Z,17.80
2019-03-26T03:57:19.449Z,18.70
2019-03-26T03:58:19.563Z,20.10
2019-03-26T03:59:19.663Z,17.30
2019-03-26T04:00:19.673Z,15.30
2019-03-26T04:01:19.786Z,19.50
2019-03-26T04:02:19.858Z,22.60
2019-03-26T04:03:20.317Z,15.70
2019-03-26T04:04:20.624Z,0.00
2019-03-26T04:05:20.630Z,20.60
2019-03-26T04:06:21.351Z,18.30
2019-03-26T04:07:21.968Z,17.90
2019-03-26T04:08:21.996Z,17.40
2019-03-26T04:09:21.879Z,16.80
2019-03-26T04:10:22.265Z,20.00
2019-03-26T04:11:22.715Z,23.90
2019-03-26T04:12:23.348Z,18.50
2019-03-26T04:13:23.356Z,19.60
2019-03-26T04:14:23.866Z,22.00
2019-03-26T04:15:23.763Z,20.80
2019-03-26T04:16:24.385Z,18.00
2019-03-26T04:17:24.392Z,18.70
2019-03-26T04:18:24.514Z,22.40
2019-03-26T04:19:24.302Z,21.20
2019-03-26T04:20:24.821Z,20.40
2019-03-26T04:21:24.520Z,17.80
2019-03-26T04:22:24.842Z,16.70
2019-03-26T04:24:25.159Z,18.00
2019-03-26T04:25:25.572Z,16.80
2019-03-26T04:26:25.949Z,15.00
2019-03-26T04:27:26.206Z,16.00
2019-03-26T04:28:26.828Z,12.70
2019-03-26T04:29:26.824Z,14.30
2019-03-26T04:30:27.136Z,11.20
2019-03-26T04:31:27.251Z,13.50
2019-03-26T04:32:27.484Z,16.00
2019-03-26T04:33:27.682Z,14.30
2019-03-26T04:34:28.189Z,16.50
2019-03-26T04:35:28.606Z,14.00
2019-03-26T04:36:28.922Z,13.40
2019-03-26T04:37:29.130Z,17.60
2019-03-26T04:38:29.351Z,15.40
2019-03-26T04:39:29.856Z,20.70
2019-03-26T04:40:29.658Z,18.70
2019-03-26T04:41:30.079Z,17.50
2019-03-26T04:42:30.388Z,15.20
2019-03-26T04:43:30.818Z,19.70
2019-03-26T04:44:31.128Z,19.20
2019-03-26T04:45:31.639Z,20.30
2019-03-26T04:46:32.044Z,18.00
2019-03-26T04:47:32.059Z,21.40
2019-03-26T04:48:31.970Z,22.30
2019-03-26T04:49:32.485Z,21.10
2019-03-26T04:50:32.491Z,23.30
2019-03-26T04:51:32.872Z,23.40
2019-03-26T04:52:33.428Z,17.80
2019-03-26T04:53:34.276Z,20.40
2019-03-26T04:54:33.234Z,14.40
2019-03-26T04:55:33.853Z,16.20
2019-03-26T04:56:33.977Z,12.90
2019-03-26T04:57:33.664Z,20.40
2019-03-26T04:58:34.194Z,18.80
2019-03-26T04:59:33.982Z,22.40
2019-03-26T05:00:34.196Z,17.80
2019-03-26T05:01:34.712Z,21.10
2019-03-26T05:02:35.029Z,19.30
2019-03-26T05:03:35.392Z,19.90
2019-03-26T05:04:35.655Z,19.00
2019-03-26T05:05:36.069Z,25.50
2019-03-26T05:06:38.279Z,23.60
2019-03-26T05:07:36.800Z,26.70
2019-03-26T05:08:37.041Z,22.70
2019-03-26T05:09:37.631Z,22.40
2019-03-26T05:10:37.435Z,24.70
2019-03-26T05:11:37.650Z,23.10
2019-03-26T05:12:37.856Z,29.80
2019-03-26T05:13:38.178Z,23.70
2019-03-26T05:14:38.386Z,25.40
2019-03-26T05:15:38.799Z,27.00
2019-03-26T05:16:39.112Z,28.00
2019-03-26T05:17:39.631Z,31.00
2019-03-26T05:18:39.644Z,31.80
2019-03-26T05:19:39.745Z,27.10
2019-03-26T05:20:39.660Z,29.30
2019-03-26T05:21:39.966Z,32.00
2019-03-26T05:22:40.485Z,27.50
2019-03-26T05:23:40.603Z,25.40
2019-03-26T05:24:40.494Z,27.10
2019-03-26T05:25:40.910Z,27.30
2019-03-26T05:26:41.328Z,30.90
2019-03-26T05:27:45.634Z,30.00
2019-03-26T05:28:42.170Z,27.60
2019-03-26T05:29:42.165Z,30.60
2019-03-26T05:30:42.834Z,31.40
2019-03-26T05:31:42.383Z,28.20
2019-03-26T05:32:42.803Z,32.40
2019-03-26T05:33:43.224Z,29.90
2019-03-26T05:34:43.467Z,31.20
2019-03-26T05:35:43.949Z,33.10
2019-03-26T05:36:51.255Z,30.90
2019-03-26T05:37:44.267Z,38.30
2019-03-26T05:38:44.791Z,32.40
2019-03-26T05:39:44.590Z,32.30
2019-03-26T05:40:45.109Z,36.40
2019-03-26T05:41:45.116Z,34.40
2019-03-26T05:42:45.529Z,34.10
2019-03-26T05:43:45.849Z,29.40
2019-03-26T05:44:46.463Z,30.60
2019-03-26T05:45:46.578Z,33.20
2019-03-26T05:46:46.474Z,35.90
2019-03-26T05:47:46.997Z,30.40
2019-03-26T05:48:46.907Z,35.00
2019-03-26T05:49:47.007Z,29.30
2019-03-26T05:50:47.525Z,33.40
2019-03-26T05:51:48.045Z,30.80
2019-03-26T05:52:48.153Z,35.30
2019-03-26T05:53:48.269Z,27.10
2019-03-26T05:54:48.164Z,30.00
2019-03-26T05:55:48.478Z,27.50
2019-03-26T05:56:48.793Z,24.60
2019-03-26T05:57:49.209Z,21.60
2019-03-26T05:58:49.532Z,28.20
2019-03-26T05:59:49.940Z,30.60
2019-03-26T06:00:50.257Z,30.00
2019-03-26T06:01:50.771Z,30.50
2019-03-26T06:02:50.676Z,31.40
2019-03-26T06:03:50.943Z,32.60
2019-03-26T06:04:51.101Z,33.50
2019-03-26T06:05:51.617Z,36.30
2019-03-26T06:07:03.971Z,35.20
2019-03-26T06:07:51.630Z,36.80
2019-03-26T06:08:52.960Z,33.20
2019-03-26T06:09:52.472Z,37.10
2019-03-26T06:10:53.030Z,35.70
2019-03-26T06:11:53.293Z,33.90
2019-03-26T06:12:53.709Z,38.30
2019-03-26T06:13:54.086Z,31.50
2019-03-26T06:14:54.250Z,34.30
2019-03-26T06:15:54.478Z,36.30
2019-03-26T06:16:54.639Z,36.70
2019-03-26T06:17:57.388Z,30.00
2019-03-26T06:18:55.389Z,31.80
2019-03-26T06:19:55.302Z,32.60
2019-03-26T06:20:55.504Z,34.80
2019-03-26T06:21:55.918Z,32.20
2019-03-26T06:22:56.234Z,33.90
2019-03-26T06:23:56.855Z,32.10
2019-03-26T06:24:56.973Z,31.60
2019-03-26T06:25:56.970Z,28.60
2019-03-26T06:26:56.670Z,26.60
2019-03-26T06:27:57.394Z,25.80
2019-03-26T06:28:57.608Z,27.50
2019-03-26T06:29:58.035Z,23.50
2019-03-26T06:30:58.343Z,27.30
2019-03-26T06:31:58.854Z,22.90
2019-03-26T06:32:58.862Z,23.90
2019-03-26T06:33:58.840Z,26.10
2019-03-26T06:34:59.306Z,25.90
2019-03-26T06:35:59.697Z,23.80
2019-03-26T06:37:00.218Z,26.40
2019-03-26T06:38:00.121Z,22.20
2019-03-26T06:39:00.332Z,30.30
2019-03-26T06:40:00.461Z,23.80
2019-03-26T06:41:00.454Z,25.70
2019-03-26T06:42:01.065Z,26.80
2019-03-26T06:43:01.070Z,23.50
2019-03-26T06:44:00.978Z,24.40
2019-03-26T06:45:01.564Z,21.90
2019-03-26T06:46:01.714Z,23.20
2019-03-26T06:47:01.724Z,20.50
2019-03-26T06:48:04.278Z,19.80
2019-03-26T06:49:02.241Z,23.80
2019-03-26T06:50:02.775Z,17.50
2019-03-26T06:51:02.788Z,26.90
2019-03-26T06:53:03.498Z,19.60
2019-03-26T06:54:03.605Z,20.60
2019-03-26T06:55:03.921Z,19.90
2019-03-26T06:56:03.697Z,21.60
2019-03-26T06:57:04.040Z,21.30
2019-03-26T06:58:03.945Z,20.30
2019-03-26T06:59:04.153Z,20.90
2019-03-26T07:00:06.992Z,17.80
2019-03-26T07:01:04.476Z,20.00
2019-03-26T07:02:04.068Z,21.20
2019-03-26T07:03:04.254Z,20.70
2019-03-26T07:04:04.901Z,17.60
2019-03-26T07:05:05.324Z,19.10
2019-03-26T07:06:05.535Z,19.40
2019-03-26T07:07:05.953Z,18.60
2019-03-26T07:08:06.458Z,20.40
2019-03-26T07:09:06.587Z,18.70
2019-03-26T07:10:06.582Z,18.60
2019-03-26T07:11:06.590Z,18.40
2019-03-26T07:12:07.909Z,16.60
2019-03-26T07:13:07.105Z,16.30
2019-03-26T07:14:07.420Z,19.70
2019-03-26T07:15:07.941Z,17.20
2019-03-26T07:16:07.953Z,20.70
2019-03-26T07:17:08.262Z,15.90
2019-03-26T07:18:08.781Z,21.10
2019-03-26T07:19:08.688Z,20.50
2019-03-26T07:20:08.691Z,21.80
2019-03-26T07:21:08.706Z,19.00
2019-03-26T07:22:09.625Z,16.30
2019-03-26T07:23:10.040Z,16.70
2019-03-26T07:24:10.667Z,17.00
2019-03-26T07:25:10.391Z,15.80
2019-03-26T07:26:10.685Z,16.70
2019-03-26T07:27:11.396Z,16.60
2019-03-26T07:28:11.305Z,16.90
2019-03-26T07:29:11.923Z,15.50
2019-03-26T07:30:12.030Z,16.60
2019-03-26T07:31:11.947Z,16.90
2019-03-26T07:32:12.254Z,18.30
2019-03-26T07:33:12.765Z,19.90
2019-03-26T07:34:12.579Z,17.70
2019-03-26T07:35:12.984Z,17.00
2019-03-26T07:36:13.412Z,19.50
2019-03-26T07:38:14.034Z,17.00
2019-03-26T07:39:14.039Z,17.60
2019-03-26T07:40:13.775Z,20.00
2019-03-26T07:41:14.255Z,16.40
2019-03-26T07:42:14.681Z,16.80
2019-03-26T07:43:15.189Z,18.20
2019-03-26T07:44:15.606Z,20.00
2019-03-26T07:45:16.227Z,19.40
2019-03-26T07:46:16.025Z,18.90
2019-03-26T07:47:16.557Z,18.00
2019-03-26T07:48:16.450Z,14.60
2019-03-26T07:49:16.763Z,19.20
2019-03-26T07:50:17.387Z,16.90
2019-03-26T07:51:17.493Z,15.80
2019-03-26T07:53:17.615Z,16.70
2019-03-26T07:54:17.720Z,17.40
2019-03-26T07:55:17.831Z,16.20
2019-03-26T07:56:17.831Z,18.80
2019-03-26T07:57:17.847Z,18.10
2019-03-26T07:58:17.950Z,18.10
2019-03-26T07:59:17.920Z,18.40
2019-03-26T08:00:18.269Z,19.30
2019-03-26T08:01:18.279Z,17.10
2019-03-26T08:02:18.489Z,14.30
2019-03-26T08:03:21.115Z,14.40
2019-03-26T08:04:19.178Z,17.10
2019-03-26T08:05:29.289Z,15.60
2019-03-26T08:06:19.847Z,15.00
2019-03-26T08:07:19.960Z,16.90
2019-03-26T08:08:20.265Z,15.20
2019-03-26T08:09:20.364Z,14.80
2019-03-26T08:10:20.585Z,15.80
2019-03-26T08:11:20.697Z,16.50
2019-03-26T08:12:20.919Z,14.30
2019-03-26T08:13:21.053Z,14.00
2019-03-26T08:14:21.436Z,14.40
2019-03-26T08:15:21.890Z,15.00
2019-03-26T08:16:22.372Z,17.10
2019-03-26T08:17:22.419Z,13.90
2019-03-26T08:18:22.174Z,13.50
2019-03-26T08:19:22.691Z,13.90
2019-03-26T08:20:22.595Z,12.80
2019-03-26T08:21:23.118Z,13.90
2019-03-26T08:22:23.542Z,14.90
2019-03-26T08:23:23.749Z,13.00
2019-03-26T08:24:24.159Z,15.10
2019-03-26T08:25:24.479Z,13.10
2019-03-26T08:26:26.119Z,13.70
2019-03-26T08:27:25.213Z,17.00
2019-03-26T08:28:25.118Z,12.00
2019-03-26T08:29:25.734Z,11.60
2019-03-26T08:30:25.437Z,11.20
2019-03-26T08:31:25.916Z,12.50
2019-03-26T08:32:26.364Z,12.80
2019-03-26T08:33:26.788Z,13.80
2019-03-26T08:34:27.399Z,11.20
2019-03-26T08:35:27.208Z,10.20
2019-03-26T08:36:27.618Z,14.00
2019-03-26T08:37:28.135Z,15.90
2019-03-26T08:38:28.105Z,9.30
2019-03-26T08:39:28.458Z,13.00
2019-03-26T08:40:28.671Z,12.40
2019-03-26T08:41:29.189Z,12.00
2019-03-26T08:42:29.297Z,14.80
2019-03-26T08:43:29.171Z,8.90
2019-03-26T08:44:29.726Z,13.00
2019-03-26T08:45:29.830Z,10.00
2019-03-26T08:46:29.941Z,13.30
2019-03-26T08:47:30.047Z,13.10
2019-03-26T08:48:29.908Z,8.90
2019-03-26T08:49:31.128Z,9.80
2019-03-26T08:50:30.378Z,10.60
2019-03-26T08:51:30.687Z,9.70
2019-03-26T08:52:31.311Z,10.70
2019-03-26T08:53:31.327Z,11.10
2019-03-26T08:54:31.424Z,9.90
2019-03-26T08:55:31.436Z,8.80
2019-03-26T08:56:31.647Z,10.90
2019-03-26T08:57:31.547Z,10.10
2019-03-26T08:58:32.082Z,11.50
2019-03-26T08:59:32.173Z,9.70
2019-03-26T09:00:32.380Z,10.50
2019-03-26T09:01:32.084Z,11.00
2019-03-26T09:02:32.479Z,9.40
2019-03-26T09:03:32.712Z,9.50
2019-03-26T09:04:32.929Z,12.30
2019-03-26T09:05:33.598Z,11.90
2019-03-26T09:06:33.540Z,9.10
2019-03-26T09:07:33.761Z,11.10
2019-03-26T09:08:34.078Z,11.80
2019-03-26T09:09:34.391Z,9.40
2019-03-26T09:10:34.506Z,11.40
2019-03-26T09:11:34.711Z,10.30
2019-03-26T09:12:35.226Z,10.60
2019-03-26T09:13:35.334Z,12.70
2019-03-26T09:14:35.346Z,12.50
2019-03-26T09:15:35.157Z,10.40
2019-03-26T09:16:35.560Z,11.10
2019-03-26T09:17:35.669Z,11.70
2019-03-26T09:18:36.031Z,10.00
2019-03-26T09:19:36.518Z,8.10
2019-03-26T09:20:36.916Z,10.50
2019-03-26T09:21:37.336Z,10.80
2019-03-26T09:22:37.646Z,11.60
2019-03-26T09:23:38.271Z,14.40
2019-03-26T09:24:38.077Z,10.10
2019-03-26T09:25:38.692Z,13.20
2019-03-26T09:26:38.595Z,11.60
2019-03-26T09:27:39.215Z,9.40
2019-03-26T09:28:39.325Z,8.60
2019-03-26T09:29:39.230Z,10.10
2019-03-26T09:30:39.453Z,9.60
2019-03-26T09:31:40.060Z,11.90
2019-03-26T09:32:39.976Z,11.30
2019-03-26T09:33:40.283Z,13.50
2019-03-26T09:34:40.696Z,11.30
2019-03-26T09:35:41.022Z,13.40
2019-03-26T09:36:41.433Z,11.10
2019-03-26T09:37:41.533Z,10.70
2019-03-26T09:38:41.957Z,9.40
2019-03-26T09:39:42.468Z,10.50
2019-03-26T09:40:42.372Z,10.90
2019-03-26T09:41:42.805Z,11.20
2019-03-26T09:42:43.105Z,12.70
2019-03-26T09:43:43.425Z,13.00
2019-03-26T09:44:43.522Z,11.80
2019-03-26T09:45:43.839Z,9.40
2019-03-26T09:46:44.097Z,12.50
2019-03-26T09:47:44.674Z,12.20
2019-03-26T09:48:44.480Z,13.70
2019-03-26T09:49:44.891Z,10.50
2019-03-26T09:50:45.406Z,14.90
2019-03-26T09:51:45.311Z,13.10
2019-03-26T09:52:45.834Z,10.00
2019-03-26T09:53:45.742Z,12.60
2019-03-26T09:54:45.845Z,13.10
2019-03-26T09:55:46.370Z,13.30
2019-03-26T09:56:45.962Z,9.80
2019-03-26T09:57:46.339Z,14.30
2019-03-26T09:58:46.990Z,13.00
2019-03-26T09:59:47.003Z,13.30
2019-03-26T10:00:47.649Z,10.80
2019-03-26T10:01:47.530Z,13.50
2019-03-26T10:02:47.943Z,11.10
2019-03-26T10:03:48.156Z,11.20
2019-03-26T10:04:48.698Z,10.20
2019-03-26T10:05:48.578Z,13.10
2019-03-26T10:06:49.196Z,11.20
2019-03-26T10:07:49.312Z,11.30
2019-03-26T10:08:52.774Z,15.50
2019-03-26T10:09:49.640Z,12.00
2019-03-26T10:10:49.641Z,12.20
2019-03-26T10:11:50.052Z,13.90
2019-03-26T10:12:50.365Z,12.90
2019-03-26T10:13:50.370Z,12.10
2019-03-26T10:14:50.897Z,13.60
2019-03-26T10:15:50.689Z,12.70
2019-03-26T10:16:51.316Z,13.80
2019-03-26T10:17:51.325Z,13.70
2019-03-26T10:18:51.941Z,16.90
2019-03-26T10:19:51.889Z,15.10
2019-03-26T10:20:52.465Z,13.20
2019-03-26T10:21:52.167Z,12.50
2019-03-26T10:22:52.994Z,11.30
2019-03-26T10:23:53.101Z,12.30
2019-03-26T10:24:52.581Z,15.20
2019-03-26T10:25:52.780Z,15.00
2019-03-26T10:26:53.737Z,15.60
2019-03-26T10:27:54.149Z,13.70
2019-03-26T10:28:54.579Z,14.10
2019-03-26T10:29:55.106Z,15.70
2019-03-26T10:30:55.192Z,14.70
2019-03-26T10:31:55.317Z,14.20
2019-03-26T10:32:55.103Z,14.60
2019-03-26T10:33:55.417Z,14.90
2019-03-26T10:34:55.747Z,18.30
2019-03-26T10:35:56.355Z,13.70
2019-03-26T10:36:56.639Z,13.40
2019-03-26T10:37:57.284Z,16.50
2019-03-26T10:39:05.370Z,15.00
2019-03-26T10:39:57.927Z,16.50
2019-03-26T10:40:58.022Z,15.70
2019-03-26T10:41:57.928Z,14.20
2019-03-26T10:42:58.138Z,16.90
2019-03-26T10:43:58.100Z,18.60
2019-03-26T10:44:58.469Z,15.00
2019-03-26T10:45:59.081Z,15.50
2019-03-26T10:46:59.086Z,16.40
2019-03-26T10:47:59.715Z,15.60
2019-03-26T10:48:59.751Z,14.00
2019-03-26T10:50:00.069Z,16.30
2019-03-26T10:51:00.699Z,17.20
2019-03-26T10:52:00.661Z,19.90
2019-03-26T10:53:01.071Z,14.40
2019-03-26T10:54:01.706Z,16.00
2019-03-26T10:55:01.553Z,15.10
2019-03-26T10:56:01.819Z,16.00
2019-03-26T10:57:02.040Z,14.00
2019-03-26T10:58:02.128Z,14.00
2019-03-26T10:59:04.157Z,15.70
2019-03-26T11:00:02.347Z,15.90
2019-03-26T11:01:02.872Z,14.00
2019-03-26T11:02:03.076Z,15.60
2019-03-26T11:03:03.206Z,15.80
2019-03-26T11:04:03.299Z,14.70
2019-03-26T11:05:03.811Z,12.80
2019-03-26T11:06:03.828Z,17.30
2019-03-26T11:07:04.132Z,14.00
2019-03-26T11:08:04.652Z,13.60
2019-03-26T11:09:18.879Z,12.50
2019-03-26T11:10:05.179Z,12.40
2019-03-26T11:11:05.712Z,14.10
2019-03-26T11:12:05.705Z,13.20
2019-03-26T11:13:05.812Z,11.60
2019-03-26T11:14:05.816Z,13.40
2019-03-26T11:15:05.615Z,14.30
2019-03-26T11:16:05.937Z,12.60
2019-03-26T11:17:05.738Z,12.80
2019-03-26T11:18:06.150Z,15.00
2019-03-26T11:19:06.206Z,13.20
2019-03-26T11:20:06.688Z,13.30
2019-03-26T11:21:06.585Z,14.00
2019-03-26T11:22:06.999Z,11.60
2019-03-26T11:23:07.616Z,14.90
2019-03-26T11:24:07.725Z,12.10
2019-03-26T11:25:07.740Z,11.30
2019-03-26T11:26:07.752Z,14.70
2019-03-26T11:27:08.056Z,14.20
2019-03-26T11:28:08.878Z,13.90
2019-03-26T11:29:08.987Z,14.10
2019-03-26T11:30:08.790Z,13.10
2019-03-26T11:31:09.315Z,13.50
2019-03-26T11:32:09.311Z,13.20
2019-03-26T11:33:14.574Z,14.00
2019-03-26T11:34:08.709Z,15.40
2019-03-26T11:35:09.398Z,13.60
2019-03-26T11:36:09.617Z,15.80
2019-03-26T11:37:10.026Z,15.50
2019-03-26T11:38:10.345Z,15.70
2019-03-26T11:39:10.555Z,17.00
2019-03-26T11:40:10.222Z,13.90
2019-03-26T11:41:10.325Z,14.70
2019-03-26T11:42:10.564Z,17.30
2019-03-26T11:43:10.827Z,13.70
2019-03-26T11:44:10.974Z,15.40
2019-03-26T11:45:11.246Z,13.70
2019-03-26T11:46:11.440Z,13.20
2019-03-26T11:47:11.667Z,15.10
2019-03-26T11:48:11.930Z,15.50
2019-03-26T11:49:12.194Z,13.70
2019-03-26T11:51:12.390Z,16.80
2019-03-26T11:52:12.574Z,12.60
2019-03-26T11:53:12.827Z,16.00
2019-03-26T11:54:12.984Z,13.50
2019-03-26T11:55:13.275Z,13.10
2019-03-26T11:56:13.508Z,12.90
2019-03-26T11:57:13.896Z,14.00
2019-03-26T11:58:14.123Z,13.40
2019-03-26T11:59:14.272Z,12.10
2019-03-26T12:00:14.554Z,14.40
2019-03-26T12:01:15.129Z,16.10
2019-03-26T12:02:16.307Z,15.60
2019-03-26T12:03:16.341Z,14.60
2019-03-26T12:04:16.455Z,17.90
2019-03-26T12:05:16.454Z,18.00
2019-03-26T12:06:16.476Z,15.00
2019-03-26T12:07:16.212Z,18.20
2019-03-26T12:08:16.781Z,19.10
2019-03-26T12:09:16.687Z,14.90
2019-03-26T12:10:17.312Z,19.50
2019-03-26T12:11:17.319Z,17.30
2019-03-26T12:12:17.218Z,15.40
2019-03-26T12:13:17.632Z,18.90
2019-03-26T12:14:18.051Z,19.40
2019-03-26T12:15:18.568Z,13.20
2019-03-26T12:16:18.585Z,13.80
2019-03-26T12:17:18.486Z,13.60
2019-03-26T12:18:18.887Z,16.00
2019-03-26T12:19:19.419Z,18.10
2019-03-26T12:20:19.113Z,14.20
2019-03-26T12:21:19.232Z,15.60
2019-03-26T12:22:19.739Z,17.00
2019-03-26T12:23:19.850Z,13.40
2019-03-26T12:24:19.649Z,14.80
2019-03-26T12:25:20.167Z,15.70
2019-03-26T12:26:19.775Z,11.60
2019-03-26T12:27:19.978Z,13.40
2019-03-26T12:28:20.506Z,14.00
2019-03-26T12:29:20.503Z,14.20
2019-03-26T12:30:20.570Z,12.20
2019-03-26T12:31:21.035Z,15.70
2019-03-26T12:32:21.444Z,13.80
2019-03-26T12:33:21.757Z,12.70
2019-03-26T12:34:22.176Z,13.20
2019-03-26T12:35:22.280Z,13.60
2019-03-26T12:36:22.911Z,13.70
2019-03-26T12:37:23.319Z,14.10
2019-03-26T12:38:23.428Z,14.70
2019-03-26T12:39:23.850Z,13.10
2019-03-26T12:40:24.266Z,14.20
2019-03-26T12:41:24.794Z,13.10
2019-03-26T12:42:24.687Z,13.90
2019-03-26T12:43:24.797Z,13.00
2019-03-26T12:44:25.412Z,12.40
2019-03-26T12:45:25.321Z,13.30
2019-03-26T12:46:25.844Z,15.20
2019-03-26T12:47:25.853Z,14.20
2019-03-26T12:48:25.961Z,13.60
2019-03-26T12:49:25.863Z,13.50
2019-03-26T12:50:26.274Z,13.40
2019-03-26T12:51:26.554Z,14.00
2019-03-26T12:52:26.844Z,14.50
2019-03-26T12:53:27.422Z,14.80
2019-03-26T12:54:27.430Z,12.50
2019-03-26T12:55:27.846Z,12.70
2019-03-26T12:56:28.008Z,15.80
2019-03-26T12:57:28.479Z,12.90
2019-03-26T12:58:32.068Z,15.10
2019-03-26T12:59:29.305Z,12.80
2019-03-26T13:00:29.826Z,12.10
2019-03-26T13:01:29.932Z,12.60
2019-03-26T13:02:30.459Z,12.80
2019-03-26T13:03:30.252Z,12.60
2019-03-26T13:04:30.260Z,13.20
2019-03-26T13:05:30.673Z,11.60
2019-03-26T13:06:31.202Z,11.00
2019-03-26T13:07:31.204Z,12.30
2019-03-26T13:08:31.006Z,12.70
2019-03-26T13:09:31.314Z,10.00
2019-03-26T13:10:31.357Z,11.50
2019-03-26T13:11:31.942Z,11.00